Time;durP1;ratioP1;P1;durP2;ratioP2;P2;SDS_P1;SDS_P2;PMS_P1;PMS_P2;Temp;Humidity;BMP_temperature;BMP_pressure;BME280_temperature;BME280_humidity;BME280_pressure;Samples;Min_cycle;Max_cycle;Signal;HPM_P1;HPM_P2
2022/10/26 00:02:07;;;;;;;4.77;2.30;;;;;;;19.31;54.60;101301.88;5062762;28;20265;-62
2022/10/26 00:04:32;;;;;;;5.25;1.80;;;;;;;19.33;54.39;101292.88;5055527;28;20282;-61
2022/10/26 00:06:57;;;;;;;4.55;2.00;;;;;;;19.36;54.57;101300.56;5054301;28;20240;-61
2022/10/26 00:09:23;;;;;;;5.50;2.33;;;;;;;19.32;54.32;101288.53;5056806;28;20044;-62
2022/10/26 00:11:48;;;;;;;4.35;1.92;;;;;;;19.28;54.29;101279.19;5062268;28;20257;-61
2022/10/26 00:14:13;;;;;;;3.93;1.93;;;;;;;19.26;54.65;101272.34;5055814;28;20037;-62
2022/10/26 00:16:38;;;;;;;4.30;2.27;;;;;;;19.34;54.39;101280.50;5051238;28;20361;-61
2022/10/26 00:19:04;;;;;;;4.50;1.93;;;;;;;19.28;54.59;101267.75;5042612;28;20262;-61
2022/10/26 00:21:29;;;;;;;5.13;2.20;;;;;;;19.32;54.20;101282.44;5048323;28;20354;-61
2022/10/26 00:23:54;;;;;;;4.60;2.38;;;;;;;19.31;54.48;101278.94;5062376;28;20343;-61
2022/10/26 00:26:19;;;;;;;4.13;1.88;;;;;;;19.32;54.40;101279.78;5059390;28;20140;-62
2022/10/26 00:28:45;;;;;;;4.03;2.00;;;;;;;19.31;54.50;101260.44;5047166;28;20457;-61
2022/10/26 00:31:12;;;;;;;3.70;1.80;;;;;;;19.25;54.39;101245.09;5052136;28;20040;-62
2022/10/26 00:33:38;;;;;;;5.93;2.33;;;;;;;19.25;54.28;101238.94;5042477;28;20315;-61
2022/10/26 00:36:03;;;;;;;5.88;2.20;;;;;;;19.30;54.64;101250.84;5041576;28;20032;-62
2022/10/26 00:38:28;;;;;;;5.72;2.17;;;;;;;19.24;54.48;101255.78;5042309;28;20395;-59
2022/10/26 00:40:54;;;;;;;5.18;1.98;;;;;;;19.24;54.34;101261.88;5050274;28;20039;-62
2022/10/26 00:43:22;;;;;;;4.40;2.00;;;;;;;19.29;54.58;101267.63;5061689;28;20060;-60
2022/10/26 00:45:50;;;;;;;4.22;2.00;;;;;;;19.29;54.24;101269.44;5041727;28;20029;-60
2022/10/26 00:48:27;;;;;;;4.05;1.90;;;;;;;19.24;54.33;101259.25;5060642;28;20127;-60
2022/10/26 00:50:54;;;;;;;3.85;1.65;;;;;;;19.26;54.36;101270.53;5061507;28;20016;-61
2022/10/26 00:53:20;;;;;;;4.50;2.38;;;;;;;19.26;54.34;101272.34;5061724;28;20151;-61
2022/10/26 00:55:48;;;;;;;3.97;1.92;;;;;;;19.27;54.56;101269.56;5061724;28;20119;-61
2022/10/26 00:58:15;;;;;;;3.65;1.90;;;;;;;19.21;54.46;101252.38;5041112;28;20599;-61
2022/10/26 01:00:42;;;;;;;4.55;2.08;;;;;;;19.20;54.69;101247.22;5041764;28;20083;-62
2022/10/26 01:03:09;;;;;;;4.55;2.15;;;;;;;19.23;54.34;101243.50;5046909;28;20033;-62
2022/10/26 01:05:38;;;;;;;3.38;1.98;;;;;;;19.20;54.17;101234.88;5061043;28;20040;-61
2022/10/26 01:08:04;;;;;;;5.00;2.40;;;;;;;19.21;54.40;101238.34;5052260;28;20465;-63
2022/10/26 01:10:31;;;;;;;3.80;2.10;;;;;;;19.18;54.41;101233.31;5061222;28;20089;-60
2022/10/26 01:12:57;;;;;;;4.93;1.95;;;;;;;19.19;54.43;101245.56;5056475;28;20499;-61
2022/10/26 01:15:34;;;;;;;6.45;2.05;;;;;;;19.21;54.38;101239.19;5048268;28;20357;-62
2022/10/26 01:18:15;;;;;;;4.65;2.13;;;;;;;19.17;54.39;101229.84;5057347;28;20939;-61
2022/10/26 01:21:05;;;;;;;4.10;2.15;;;;;;;19.22;54.36;101234.75;5051735;28;20036;-61
2022/10/26 01:23:53;;;;;;;4.30;2.28;;;;;;;19.20;54.57;101229.59;5058896;28;20071;-64
2022/10/26 01:26:34;;;;;;;4.60;1.92;;;;;;;19.24;54.38;101224.91;5058474;28;20029;-59
2022/10/26 01:29:06;;;;;;;5.95;2.25;;;;;;;19.23;54.48;101222.38;5056765;28;20025;-62
2022/10/26 01:31:46;;;;;;;4.40;2.20;;;;;;;19.23;54.45;101225.00;5051299;28;20481;-60
2022/10/26 01:34:24;;;;;;;4.97;2.10;;;;;;;19.24;54.40;101226.72;5056445;28;20032;-60
2022/10/26 01:37:00;;;;;;;4.88;2.20;;;;;;;19.16;54.60;101212.28;5056296;28;20499;-64
2022/10/26 01:39:33;;;;;;;5.45;2.20;;;;;;;19.17;54.58;101213.97;5060433;28;20032;-60
2022/10/26 01:42:03;;;;;;;4.43;2.20;;;;;;;19.19;54.40;101217.34;5055441;28;20385;-62
2022/10/26 01:44:40;;;;;;;4.10;2.10;;;;;;;19.19;54.16;101212.03;5056357;28;20032;-61
2022/10/26 01:47:08;;;;;;;5.15;2.00;;;;;;;19.13;54.57;101212.53;5040529;28;20461;-62
2022/10/26 01:49:39;;;;;;;4.72;2.05;;;;;;;19.12;54.30;101204.72;5040897;28;20032;-60
2022/10/26 01:52:04;;;;;;;4.50;2.20;;;;;;;19.20;54.37;101212.88;5049880;28;20033;-61
2022/10/26 01:54:30;;;;;;;4.28;1.80;;;;;;;19.19;54.43;101208.56;5053848;28;20376;-61
2022/10/26 01:57:02;;;;;;;4.93;2.25;;;;;;;19.16;54.52;101208.81;5060213;28;20040;-61
2022/10/26 01:59:52;;;;;;;4.03;2.00;;;;;;;19.20;54.33;101212.88;5052662;28;20036;-61
2022/10/26 02:02:36;;;;;;;4.80;2.13;;;;;;;19.14;54.06;101202.81;5060870;28;20497;-62
2022/10/26 02:05:23;;;;;;;4.55;2.20;;;;;;;19.19;54.35;101211.22;5055178;28;20094;-63
2022/10/26 02:07:51;;;;;;;5.35;2.67;;;;;;;19.18;54.33;101202.47;5040784;28;21027;-62
2022/10/26 02:10:28;;;;;;;5.03;2.40;;;;;;;19.18;54.21;101197.19;5056628;28;20107;-59
2022/10/26 02:13:03;;;;;;;4.20;2.20;;;;;;;19.18;54.24;101191.03;5060815;28;20044;-60
2022/10/26 02:15:37;;;;;;;4.68;2.10;;;;;;;19.18;54.37;101196.31;5060593;28;20040;-62
2022/10/26 02:18:22;;;;;;;3.95;2.03;;;;;;;19.16;54.37;101193.78;5060748;28;20029;-60
2022/10/26 02:20:55;;;;;;;5.43;2.10;;;;;;;19.15;54.45;101186.84;5060687;28;20048;-60
2022/10/26 02:23:23;;;;;;;4.30;2.20;;;;;;;19.17;54.33;101190.22;5044236;28;20277;-60
2022/10/26 02:25:54;;;;;;;5.22;2.30;;;;;;;19.08;54.54;101174.25;5048766;28;20043;-62
2022/10/26 02:28:26;;;;;;;4.63;2.28;;;;;;;19.15;54.43;101183.34;5050152;28;20816;-61
2022/10/26 02:30:55;;;;;;;5.53;2.20;;;;;;;19.13;54.52;101182.66;5048258;28;20592;-61
2022/10/26 02:33:22;;;;;;;4.25;1.92;;;;;;;19.10;54.55;101178.44;5040441;28;20025;-62
2022/10/26 02:35:53;;;;;;;4.30;2.30;;;;;;;19.10;54.28;101178.44;5046424;28;20132;-61
2022/10/26 02:38:20;;;;;;;4.55;2.15;;;;;;;19.14;54.38;101182.53;5040559;28;20029;-62
2022/10/26 02:40:48;;;;;;;5.18;2.00;;;;;;;19.14;54.18;101185.16;5040650;28;20033;-61
2022/10/26 02:43:20;;;;;;;4.22;2.25;;;;;;;19.07;54.16;101168.13;5058459;28;20559;-62
2022/10/26 02:45:50;;;;;;;4.82;2.20;;;;;;;19.08;54.10;101161.88;5053781;28;20029;-61
2022/10/26 02:48:16;;;;;;;4.47;2.10;;;;;;;19.14;54.30;101179.88;5040539;28;20132;-62
2022/10/26 02:50:55;;;;;;;4.72;2.15;;;;;;;19.08;54.39;101164.53;5055321;28;20144;-63
2022/10/26 02:53:30;;;;;;;3.85;1.98;;;;;;;19.14;54.54;101171.13;5040380;28;20044;-60
2022/10/26 02:55:59;;;;;;;4.40;2.05;;;;;;;19.09;54.29;101160.06;5041219;28;20037;-61
2022/10/26 02:58:29;;;;;;;5.03;1.90;;;;;;;19.13;54.34;101169.44;5044680;28;20033;-61
2022/10/26 03:00:55;;;;;;;4.03;2.15;;;;;;;19.09;54.22;101165.34;5044174;28;20043;-64
2022/10/26 03:03:21;;;;;;;4.35;2.00;;;;;;;19.07;54.38;101154.91;5048473;28;20250;-62
2022/10/26 03:05:47;;;;;;;9.27;2.67;;;;;;;19.04;54.39;101157.78;5062191;28;20379;-61
2022/10/26 03:08:12;;;;;;;4.93;2.20;;;;;;;19.12;54.13;101173.03;5053717;28;20025;-61
2022/10/26 03:10:43;;;;;;;4.57;1.90;;;;;;;19.10;54.43;101162.59;5063652;28;20435;-62
2022/10/26 03:13:09;;;;;;;4.40;2.17;;;;;;;19.08;54.36;101159.22;5063409;28;20293;-60
2022/10/26 03:15:35;;;;;;;5.45;2.42;;;;;;;19.05;54.46;101153.38;5053523;28;20033;-61
2022/10/26 03:18:01;;;;;;;4.45;1.98;;;;;;;19.06;54.37;101155.88;5047956;28;20384;-63
2022/10/26 03:20:26;;;;;;;5.07;2.10;;;;;;;19.10;54.12;101167.88;5057040;28;20099;-63
2022/10/26 03:22:52;;;;;;;3.28;1.70;;;;;;;19.08;54.35;101161.88;5048390;28;20613;-61
2022/10/26 03:25:17;;;;;;;4.10;1.77;;;;;;;19.10;54.48;101162.59;5062756;28;20036;-61
2022/10/26 03:27:42;;;;;;;4.17;1.70;;;;;;;19.03;54.49;101150.84;5063276;28;20483;-63
2022/10/26 03:30:08;;;;;;;4.65;2.20;;;;;;;19.03;54.14;101156.13;5059300;28;20273;-62
2022/10/26 03:32:33;;;;;;;3.92;1.80;;;;;;;19.08;54.16;101159.22;5060432;28;20050;-62
2022/10/26 03:34:59;;;;;;;5.22;1.98;;;;;;;19.10;54.26;101161.75;5062948;28;20033;-61
2022/10/26 03:37:24;;;;;;;4.43;2.20;;;;;;;19.03;54.08;101150.84;5060246;28;20051;-63
2022/10/26 03:39:50;;;;;;;3.80;1.85;;;;;;;19.11;54.28;101159.00;5044874;28;20033;-63
2022/10/26 03:42:15;;;;;;;3.58;1.92;;;;;;;19.03;54.47;101156.13;5055685;28;20036;-61
2022/10/26 03:44:40;;;;;;;3.97;1.70;;;;;;;19.03;54.43;101145.56;5042928;28;20033;-62
2022/10/26 03:47:05;;;;;;;3.20;1.60;;;;;;;19.05;54.56;101153.38;5046317;28;20609;-61
2022/10/26 03:49:31;;;;;;;3.47;1.50;;;;;;;19.07;54.29;101151.44;5049684;28;20887;-62
2022/10/26 03:51:56;;;;;;;4.22;2.30;;;;;;;19.06;54.30;101150.59;5059613;28;20257;-61
2022/10/26 03:54:21;;;;;;;4.00;1.90;;;;;;;19.09;54.31;101157.44;5055134;28;20037;-62
2022/10/26 03:56:47;;;;;;;3.80;1.83;;;;;;;19.01;54.46;101144.84;5046908;28;20033;-63
2022/10/26 03:59:13;;;;;;;3.97;1.90;;;;;;;19.07;54.10;101146.97;5042688;28;20258;-62
2022/10/26 04:01:38;;;;;;;4.50;2.10;;;;;;;19.06;54.30;101142.69;5043003;28;20522;-61
2022/10/26 04:04:04;;;;;;;3.53;1.90;;;;;;;19.07;54.19;101146.16;5052161;28;20375;-61
2022/10/26 04:06:29;;;;;;;3.90;2.10;;;;;;;19.05;54.24;101146.28;5050081;28;20036;-61
2022/10/26 04:09:00;;;;;;;4.23;2.03;;;;;;;19.02;54.32;101138.59;5052092;28;20296;-60
2022/10/26 04:11:26;;;;;;;3.38;1.50;;;;;;;19.06;54.26;101155.03;5041926;28;20341;-60
2022/10/26 04:13:51;;;;;;;3.88;1.85;;;;;;;19.05;54.24;101154.19;5044996;28;20171;-61
2022/10/26 04:16:16;;;;;;;4.43;1.97;;;;;;;19.02;54.42;101149.16;5042603;28;20889;-60
2022/10/26 04:18:41;;;;;;;4.47;2.10;;;;;;;19.04;54.27;101152.50;5042160;28;20262;-61
2022/10/26 04:21:06;;;;;;;3.93;2.00;;;;;;;18.97;54.38;101144.25;5042396;28;20262;-61
2022/10/26 04:23:32;;;;;;;4.00;1.67;;;;;;;19.03;54.20;101148.22;5042733;28;20741;-61
2022/10/26 04:25:57;;;;;;;3.50;1.80;;;;;;;18.99;54.32;101146.75;5042321;28;20427;-64
2022/10/26 04:28:23;;;;;;;3.67;1.70;;;;;;;19.03;54.41;101150.84;5053946;28;20265;-61
2022/10/26 04:30:48;;;;;;;3.63;1.80;;;;;;;19.01;54.46;101145.69;5050020;28;20502;-61
2022/10/26 04:33:13;;;;;;;3.87;1.70;;;;;;;19.01;54.30;101150.13;5042458;28;20029;-62
2022/10/26 04:35:38;;;;;;;3.10;1.70;;;;;;;18.95;54.28;101138.25;5042639;28;20654;-61
2022/10/26 04:38:05;;;;;;;3.92;1.75;;;;;;;18.95;54.27;101132.97;5053328;28;20266;-62
2022/10/26 04:40:32;;;;;;;4.78;1.70;;;;;;;18.94;54.13;101133.91;5042396;28;20028;-61
2022/10/26 04:42:58;;;;;;;3.40;1.70;;;;;;;19.02;54.35;101143.88;5052670;28;20570;-63
2022/10/26 04:45:23;;;;;;;3.60;1.80;;;;;;;19.02;54.25;101143.88;5061710;28;20036;-62
2022/10/26 04:48:17;;;;;;;3.55;1.70;;;;;;;19.01;54.20;101144.84;5061618;28;20047;-62
2022/10/26 04:50:43;;;;;;;3.42;1.50;;;;;;;18.97;54.20;101138.97;5041439;28;20052;-62
2022/10/26 04:53:08;;;;;;;4.65;1.90;;;;;;;18.98;54.23;101145.94;5044307;28;20041;-61
2022/10/26 04:55:34;;;;;;;3.83;1.88;;;;;;;18.96;54.30;101142.59;5061578;28;20546;-62
2022/10/26 04:57:59;;;;;;;4.35;1.77;;;;;;;18.94;54.21;101141.00;5058556;28;20058;-62
2022/10/26 05:00:25;;;;;;;4.50;1.92;;;;;;;19.00;54.10;101149.28;5041691;28;20040;-61
2022/10/26 05:02:50;;;;;;;4.07;1.50;;;;;;;18.94;54.31;101141.84;5054903;28;20779;-60
2022/10/26 05:05:16;;;;;;;5.18;1.80;;;;;;;18.97;54.08;101149.53;5061422;28;20135;-61
2022/10/26 05:07:41;;;;;;;3.53;1.50;;;;;;;18.96;54.47;101144.38;5044822;28;20090;-62
2022/10/26 05:10:07;;;;;;;6.43;1.70;;;;;;;19.00;54.45;101151.09;5049062;28;20293;-61
2022/10/26 05:12:32;;;;;;;3.08;1.60;;;;;;;18.91;54.40;101138.63;5061421;28;20261;-64
2022/10/26 05:14:58;;;;;;;5.50;1.70;;;;;;;18.94;54.20;101152.41;5061320;28;20025;-60
2022/10/26 05:17:27;;;;;;;5.70;1.88;;;;;;;18.93;54.26;101148.09;5054748;28;20033;-62
2022/10/26 05:19:54;;;;;;;3.85;1.70;;;;;;;18.99;54.30;101155.53;5053231;28;20028;-61
2022/10/26 05:22:21;;;;;;;3.70;1.77;;;;;;;18.93;54.28;101144.59;5048118;28;20048;-61
2022/10/26 05:24:46;;;;;;;3.40;1.50;;;;;;;18.92;54.26;101148.22;5044184;28;20445;-62
2022/10/26 05:27:11;;;;;;;3.67;1.70;;;;;;;18.98;54.40;101153.03;5041049;28;20071;-61
2022/10/26 05:29:36;;;;;;;4.20;1.70;;;;;;;18.99;54.27;101159.97;5041258;28;20086;-61
2022/10/26 05:32:02;;;;;;;5.60;1.85;;;;;;;18.90;54.28;101148.34;5039887;28;20114;-62
2022/10/26 05:34:27;;;;;;;3.47;1.50;;;;;;;18.96;54.38;101158.44;5041310;28;20037;-62
2022/10/26 05:36:53;;;;;;;4.40;1.73;;;;;;;18.98;54.30;101166.22;5059498;28;20029;-60
2022/10/26 05:39:18;;;;;;;3.28;1.55;;;;;;;18.98;54.46;101164.41;5048342;28;20292;-62
2022/10/26 05:41:43;;;;;;;3.95;1.90;;;;;;;18.96;54.47;101149.66;5046170;28;20522;-61
2022/10/26 05:44:09;;;;;;;4.30;1.57;;;;;;;18.99;54.18;101152.91;5049512;28;20021;-63
2022/10/26 05:46:34;;;;;;;3.20;1.57;;;;;;;19.03;54.68;101156.13;5041117;28;20258;-61
2022/10/26 05:48:59;;;;;;;4.13;1.43;;;;;;;18.98;54.71;101150.38;5040785;28;20266;-62
2022/10/26 05:51:24;;;;;;;4.27;1.50;;;;;;;19.01;54.96;101153.59;5049707;28;20757;-60
2022/10/26 05:53:53;;;;;;;4.70;1.40;;;;;;;19.02;54.70;101155.28;5060869;28;20276;-62
2022/10/26 05:56:30;;;;;;;4.25;1.70;;;;;;;19.09;54.86;101170.63;5041396;28;20262;-62
2022/10/26 05:58:56;;;;;;;4.95;1.65;;;;;;;19.08;54.77;101156.59;5068459;28;20078;-62
2022/10/26 06:01:21;;;;;;;3.22;1.42;;;;;;;19.16;54.49;101172.66;5060535;28;20036;-62
2022/10/26 06:04:14;;;;;;;3.77;1.37;;;;;;;19.18;54.53;101170.75;5057170;28;20029;-61
2022/10/26 06:06:43;;;;;;;4.05;1.65;;;;;;;19.21;54.74;101175.75;5059144;28;20021;-61
2022/10/26 06:09:10;;;;;;;3.17;1.40;;;;;;;19.16;55.06;101177.13;5056758;28;20056;-60
2022/10/26 06:11:36;;;;;;;3.50;1.50;;;;;;;19.21;54.72;101181.06;5040980;28;20033;-61
2022/10/26 06:14:02;;;;;;;4.18;1.70;;;;;;;19.23;54.87;101183.56;5039232;28;20036;-61
2022/10/26 06:16:46;;;;;;;4.85;1.70;;;;;;;19.26;54.73;101188.59;5059910;28;20102;-61
2022/10/26 06:19:45;;;;;;;3.28;1.50;;;;;;;19.20;54.99;101174.09;5056137;28;20061;-61
2022/10/26 06:22:27;;;;;;;5.38;1.90;;;;;;;19.30;55.24;101182.13;5045207;28;20400;-61
2022/10/26 06:25:17;;;;;;;2.92;1.35;;;;;;;19.32;55.19;101179.34;5060617;28;20036;-63
2022/10/26 06:27:50;;;;;;;5.03;1.60;;;;;;;19.27;54.79;101170.97;5060331;28;20043;-61
2022/10/26 06:30:16;;;;;;;3.55;1.50;;;;;;;19.35;54.99;101181.75;5060483;28;20025;-61
2022/10/26 06:32:45;;;;;;;4.82;1.65;;;;;;;19.36;55.13;101183.44;5043084;28;20094;-62
2022/10/26 06:35:20;;;;;;;3.28;1.40;;;;;;;19.37;55.15;101185.09;5055354;28;20119;-64
2022/10/26 06:37:45;;;;;;;3.67;1.80;;;;;;;19.32;55.13;101174.06;5046998;28;20024;-61
2022/10/26 06:40:14;;;;;;;4.07;1.60;;;;;;;19.40;55.18;101174.28;5043057;28;20489;-63
2022/10/26 06:42:40;;;;;;;5.20;1.70;;;;;;;19.35;55.26;101166.72;5051255;28;20375;-62
2022/10/26 06:45:06;;;;;;;3.75;1.40;;;;;;;19.42;55.04;101168.88;5052077;28;20039;-62
2022/10/26 06:47:44;;;;;;;4.05;1.50;;;;;;;19.43;55.01;101174.03;5047186;28;20041;-61
2022/10/26 06:50:35;;;;;;;5.22;1.70;;;;;;;19.36;54.92;101155.19;5059741;28;20025;-62
2022/10/26 06:53:09;;;;;;;3.60;1.27;;;;;;;19.36;55.15;101162.31;5047101;28;20100;-61
2022/10/26 06:55:40;;;;;;;7.03;1.70;;;;;;;19.42;55.35;101169.69;5055389;28;20531;-63
2022/10/26 06:58:12;;;;;;;4.65;1.70;;;;;;;19.40;55.27;101169.00;5044270;28;20064;-62
2022/10/26 07:00:38;;;;;;;4.15;1.70;;;;;;;19.38;55.11;101165.66;5049844;28;20372;-62
2022/10/26 07:03:03;;;;;;;4.60;1.30;;;;;;;19.41;55.22;101165.41;5053419;28;20028;-66
2022/10/26 07:05:29;;;;;;;3.57;1.50;;;;;;;19.45;55.05;101172.09;5050527;28;20074;-72
2022/10/26 07:07:54;;;;;;;5.53;1.85;;;;;;;19.47;55.18;101178.13;5042590;28;20776;-68
2022/10/26 07:10:19;;;;;;;10.50;1.95;;;;;;;19.48;55.48;101187.72;5054649;28;20032;-69
2022/10/26 07:12:45;;;;;;;4.43;1.60;;;;;;;19.57;55.12;101194.91;5062857;28;20040;-76
2022/10/26 07:15:10;;;;;;;3.78;1.42;;;;;;;19.64;54.87;101200.50;5058942;28;20281;-71
2022/10/26 07:17:47;;;;;;;5.03;1.35;;;;;;;19.71;54.66;101200.84;5057788;28;20035;-71
2022/10/26 07:20:14;;;;;;;4.43;1.40;;;;;;;19.69;54.67;101193.06;5048850;28;20021;-63
2022/10/26 07:22:41;;;;;;;4.88;1.30;;;;;;;19.65;54.64;101194.28;5047948;28;20884;-63
2022/10/26 07:25:07;;;;;;;3.72;1.40;;;;;;;19.68;54.83;101196.66;5059362;28;20066;-64
2022/10/26 07:27:33;;;;;;;3.80;1.90;;;;;;;19.61;54.55;101199.94;5047303;28;20511;-61
2022/10/26 07:29:58;;;;;;;5.78;1.63;;;;;;;19.69;54.53;101210.72;5051286;28;20028;-73
2022/10/26 07:32:23;;;;;;;3.47;1.42;;;;;;;19.68;54.67;101203.75;5057481;28;20119;-73
2022/10/26 07:34:48;;;;;;;3.95;1.58;;;;;;;19.63;54.54;101198.00;5046700;28;20044;-72
2022/10/26 07:37:14;;;;;;;3.77;1.53;;;;;;;19.73;54.34;101210.34;5056168;28;20121;-68
2022/10/26 07:39:39;;;;;;;3.28;1.38;;;;;;;19.80;54.49;101212.50;5061586;28;20262;-67
2022/10/26 07:42:04;;;;;;;3.65;1.45;;;;;;;19.84;54.52;101230.66;5052341;28;20546;-73
2022/10/26 07:44:30;;;;;;;4.57;1.58;;;;;;;19.87;54.68;101232.22;5046836;28;20023;-71
2022/10/26 07:46:55;;;;;;;3.10;1.40;;;;;;;19.83;54.61;101226.31;5054426;28;20083;-71
2022/10/26 07:49:21;;;;;;;3.47;1.40;;;;;;;19.86;54.17;101243.75;5049777;28;20311;-70
2022/10/26 07:51:46;;;;;;;5.97;1.60;;;;;;;19.91;54.39;101246.84;5049895;28;20025;-70
2022/10/26 07:54:11;;;;;;;4.55;1.35;;;;;;;19.85;54.49;101234.13;5048378;28;20029;-71
2022/10/26 07:56:37;;;;;;;5.10;1.50;;;;;;;19.97;54.43;101248.16;5055805;28;20141;-69
2022/10/26 07:59:02;;;;;;;3.83;1.70;;;;;;;19.93;54.13;101236.97;5055798;28;20383;-70
2022/10/26 08:01:27;;;;;;;3.22;1.38;;;;;;;19.95;54.20;101237.69;5041840;28;20269;-66
2022/10/26 08:03:54;;;;;;;5.65;1.55;;;;;;;19.96;54.40;101242.00;5042463;28;20385;-71
2022/10/26 08:06:21;;;;;;;4.75;1.30;;;;;;;20.05;53.96;101262.41;5054847;28;20037;-71
2022/10/26 08:08:46;;;;;;;4.72;1.60;;;;;;;19.88;53.73;101234.69;5046750;28;20036;-75
2022/10/26 08:11:12;;;;;;;3.45;1.48;;;;;;;20.08;53.85;101269.28;5045356;28;20036;-74
2022/10/26 08:13:37;;;;;;;4.07;1.35;;;;;;;20.02;53.90;101256.53;5057549;28;20036;-74
2022/10/26 08:16:04;;;;;;;5.18;1.80;;;;;;;20.05;54.09;101265.06;5050308;28;20036;-73
2022/10/26 08:18:30;;;;;;;3.15;1.42;;;;;;;20.02;53.95;101254.72;5059581;28;20059;-69
2022/10/26 08:21:04;;;;;;;3.42;1.30;;;;;;;20.04;54.36;101255.44;5056122;28;20416;-66
2022/10/26 08:23:30;;;;;;;4.07;1.30;;;;;;;20.07;54.32;101267.56;5054264;28;21164;-65
2022/10/26 08:26:00;;;;;;;5.70;1.40;;;;;;;20.06;54.33;101271.19;5042895;28;20071;-70
2022/10/26 08:28:26;;;;;;;6.70;1.63;;;;;;;20.07;54.35;101280.81;5051315;28;20368;-66
2022/10/26 08:30:51;;;;;;;6.05;1.60;;;;;;;20.03;54.65;101272.28;5050148;28;20036;-70
2022/10/26 08:33:16;;;;;;;3.03;1.37;;;;;;;20.01;54.29;101263.66;5056377;28;20492;-70
2022/10/26 08:35:41;;;;;;;4.55;1.50;;;;;;;20.09;54.62;101279.72;5051553;28;20298;-74
2022/10/26 08:38:07;;;;;;;3.93;1.90;;;;;;;20.12;54.30;101283.91;5054287;28;20550;-71
2022/10/26 08:40:37;;;;;;;5.70;1.30;;;;;;;20.05;54.28;101264.22;5057118;28;20269;-72
2022/10/26 08:43:22;;;;;;;4.50;1.35;;;;;;;20.14;54.11;101273.19;5050341;28;20037;-70
2022/10/26 08:45:54;;;;;;;3.70;1.30;;;;;;;20.09;54.41;101273.56;5047274;28;20031;-71
2022/10/26 08:48:24;;;;;;;4.72;1.52;;;;;;;20.10;54.54;101277.91;5056140;28;20050;-67
2022/10/26 08:50:55;;;;;;;5.10;1.50;;;;;;;20.08;54.44;101285.16;5043628;28;20052;-65
2022/10/26 08:53:28;;;;;;;3.22;1.20;;;;;;;20.09;54.37;101270.94;5041784;28;20043;-65
2022/10/26 08:56:02;;;;;;;5.37;1.30;;;;;;;20.05;54.38;101253.66;5047633;28;20043;-71
2022/10/26 08:58:37;;;;;;;6.03;1.42;;;;;;;20.11;54.38;101259.25;5055899;28;20028;-70
2022/10/26 09:01:04;;;;;;;4.75;1.48;;;;;;;20.10;54.80;101254.09;5046841;28;20112;-68
2022/10/26 09:03:29;;;;;;;3.10;1.70;;;;;;;20.16;54.34;101255.41;5048634;28;20346;-73
2022/10/26 09:05:57;;;;;;;5.45;1.50;;;;;;;20.21;54.34;101264.63;5049168;28;20472;-69
2022/10/26 09:08:40;;;;;;;4.95;1.30;;;;;;;20.19;54.66;101268.38;5056013;28;20510;-69
2022/10/26 09:11:24;;;;;;;3.38;1.23;;;;;;;20.23;54.66;101283.84;5043391;28;20033;-69
2022/10/26 09:14:08;;;;;;;;;;;;;;;20.25;54.54;101294.31;5041733;28;20032;-71
2022/10/26 09:16:53;;;;;;;4.15;1.40;;;;;;;20.25;54.67;101299.59;5055361;28;19923;-69
2022/10/26 09:19:38;;;;;;;4.55;1.40;;;;;;;20.26;54.44;101303.94;5052772;28;20041;-68
2022/10/26 09:22:31;;;;;;;4.05;1.35;;;;;;;20.11;54.53;101287.53;5057448;28;20037;-67
2022/10/26 09:25:11;;;;;;;3.22;1.15;;;;;;;20.20;54.66;101313.25;5060508;28;20048;-69
2022/10/26 09:27:51;;;;;;;2.67;1.20;;;;;;;20.24;54.53;101316.47;5060172;28;20453;-66
2022/10/26 09:30:19;;;;;;;3.08;1.20;;;;;;;20.20;54.43;101326.47;5045074;28;20084;-71
2022/10/26 09:32:59;;;;;;;4.05;1.40;;;;;;;20.20;54.47;101320.31;5048045;28;20475;-66
2022/10/26 09:35:29;;;;;;;3.95;1.50;;;;;;;20.27;54.67;101340.03;5048438;28;20024;-71
2022/10/26 09:38:02;;;;;;;8.40;1.50;;;;;;;20.21;54.80;101346.66;5050230;28;20885;-69
2022/10/26 09:40:45;;;;;;;4.80;1.60;;;;;;;20.22;54.92;101339.56;5050083;28;20032;-67
2022/10/26 09:43:37;;;;;;;3.55;1.15;;;;;;;20.25;54.57;101348.09;5060267;28;20434;-65
2022/10/26 09:46:02;;;;;;;4.32;1.40;;;;;;;20.27;55.39;101355.91;5060201;28;20109;-64
2022/10/26 09:48:40;;;;;;;4.05;1.20;;;;;;;20.28;55.21;101352.28;5059723;28;20041;-76
2022/10/26 09:51:05;;;;;;;4.00;1.48;;;;;;;20.24;54.97;101343.75;5049705;28;20118;-71
2022/10/26 09:53:31;;;;;;;7.82;1.20;;;;;;;20.18;55.49;101333.69;5053120;28;20052;-71
2022/10/26 09:56:04;;;;;;;4.65;1.35;;;;;;;20.27;54.67;101351.44;5041386;28;20107;-70
2022/10/26 09:58:35;;;;;;;4.93;1.52;;;;;;;20.28;55.10;101353.16;5040270;28;20029;-69
2022/10/26 10:01:00;;;;;;;6.10;1.50;;;;;;;20.28;54.85;101371.66;5047961;28;20064;-69
2022/10/26 10:03:29;;;;;;;3.25;1.30;;;;;;;20.24;54.86;101359.63;5052174;28;20174;-65
2022/10/26 10:06:17;;;;;;;3.47;1.20;;;;;;;20.31;55.00;101373.19;5053077;28;20041;-64
2022/10/26 10:08:42;;;;;;;3.38;1.40;;;;;;;20.25;55.13;101361.34;5047633;28;20079;-68
2022/10/26 10:11:12;;;;;;;3.88;1.67;;;;;;;20.26;55.04;101363.00;5052777;28;20068;-71
2022/10/26 10:13:41;;;;;;;4.88;1.92;;;;;;;20.26;54.89;101370.94;5049072;28;20140;-70
2022/10/26 10:16:12;;;;;;;5.38;1.55;;;;;;;20.27;54.75;101380.56;5051982;28;20036;-70
2022/10/26 10:18:40;;;;;;;4.32;1.30;;;;;;;20.28;55.10;101379.59;5052263;28;20056;-64
2022/10/26 10:21:07;;;;;;;3.30;1.30;;;;;;;20.26;55.19;101388.63;5059754;28;20043;-64
2022/10/26 10:23:35;;;;;;;3.53;1.45;;;;;;;20.34;55.39;101410.00;5047032;28;20056;-65
2022/10/26 10:26:11;;;;;;;4.85;1.27;;;;;;;20.32;54.77;101397.88;5052301;28;20534;-69
2022/10/26 10:28:39;;;;;;;4.25;1.30;;;;;;;20.34;55.19;101409.19;5049510;28;20031;-68
2022/10/26 10:31:18;;;;;;;5.15;1.38;;;;;;;20.32;54.77;101405.84;5054697;28;20162;-70
2022/10/26 10:33:44;;;;;;;4.10;1.40;;;;;;;20.34;54.61;101409.19;5051322;28;20032;-67
2022/10/26 10:36:15;;;;;;;3.08;1.20;;;;;;;20.36;54.89;101418.69;5056038;28;20427;-68
2022/10/26 10:38:43;;;;;;;3.80;1.67;;;;;;;20.42;54.84;101430.56;5057533;28;20139;-68
2022/10/26 10:41:20;;;;;;;3.58;1.50;;;;;;;20.34;54.82;101420.59;5063968;28;20039;-68
2022/10/26 10:43:48;;;;;;;3.97;1.15;;;;;;;20.30;54.95;101420.00;5053262;28;20093;-62
2022/10/26 10:46:20;;;;;;;5.22;1.40;;;;;;;20.29;55.10;101428.91;5053753;28;20108;-62
2022/10/26 10:48:47;;;;;;;3.13;1.33;;;;;;;20.25;55.45;101434.56;5045386;28;20120;-63
2022/10/26 10:51:19;;;;;;;4.57;1.33;;;;;;;20.28;55.51;101429.03;5048611;28;20037;-71
2022/10/26 10:53:48;;;;;;;5.10;1.13;;;;;;;20.25;55.36;101437.22;5051504;28;20036;-72
2022/10/26 10:56:39;;;;;;;3.70;1.50;;;;;;;20.34;54.99;101448.88;5062781;28;20068;-69
2022/10/26 10:59:29;;;;;;;4.07;1.50;;;;;;;20.35;55.34;101456.69;5061120;28;20040;-69
2022/10/26 11:02:00;;;;;;;3.08;1.25;;;;;;;20.26;54.97;101439.75;5061747;28;20032;-68
2022/10/26 11:04:43;;;;;;;4.88;1.40;;;;;;;20.34;55.04;101459.47;5047781;28;20492;-69
2022/10/26 11:07:12;;;;;;;5.13;1.38;;;;;;;20.36;55.23;101458.41;5044631;28;20052;-73
2022/10/26 11:09:41;;;;;;;3.42;1.25;;;;;;;20.34;55.14;101457.66;5055567;28;20081;-68
2022/10/26 11:12:14;;;;;;;3.65;1.30;;;;;;;20.32;55.68;101456.94;5057653;28;20036;-67
2022/10/26 11:15:02;;;;;;;3.73;1.40;;;;;;;20.40;55.37;101469.56;5045536;28;20029;-67
2022/10/26 11:17:37;;;;;;;3.63;1.17;;;;;;;20.36;55.60;101476.94;5043078;28;20607;-67
2022/10/26 11:20:14;;;;;;;3.65;1.20;;;;;;;20.38;55.54;101485.56;5047758;28;20064;-66
2022/10/26 11:22:57;;;;;;;9.18;1.58;;;;;;;20.38;55.28;101488.22;5054638;28;20049;-63
2022/10/26 11:25:32;;;;;;;3.25;1.27;;;;;;;20.31;55.43;101476.44;5062727;28;20039;-64
2022/10/26 11:28:13;;;;;;;3.75;1.27;;;;;;;20.33;55.46;101476.31;5058750;28;20119;-65
2022/10/26 11:30:48;;;;;;;2.50;1.20;;;;;;;20.37;55.58;101489.19;5055859;28;20025;-66
2022/10/26 11:33:31;;;;;;;3.30;1.38;;;;;;;20.37;55.71;101489.19;5046524;28;20029;-66
2022/10/26 11:36:04;;;;;;;3.33;1.30;;;;;;;20.33;55.56;101482.47;5061452;28;20036;-66
2022/10/26 11:38:43;;;;;;;7.33;1.70;;;;;;;20.40;55.40;101491.59;5070259;28;20488;-66